createdAt,value
2017-07-17T00:00:35.783Z,1012.1
2017-07-17T00:01:37.155Z,1012.1
2017-07-17T00:02:38.528Z,1012.1
2017-07-17T00:03:39.899Z,1012.1
2017-07-17T00:04:41.272Z,1012.1
2017-07-17T00:05:42.645Z,1012.1
2017-07-17T00:06:44.018Z,1012.1
2017-07-17T00:07:45.388Z,1012.1
2017-07-17T00:08:46.757Z,1012.1
2017-07-17T00:09:48.131Z,1012.1
2017-07-17T00:10:49.500Z,1012.0
2017-07-17T00:11:50.874Z,1012.0
2017-07-17T00:12:52.245Z,1012.0
2017-07-17T00:13:53.623Z,1012.0
2017-07-17T00:14:54.995Z,1012.0
2017-07-17T00:15:56.365Z,1012.0
2017-07-17T00:16:57.735Z,1012.0
2017-07-17T00:17:59.107Z,1012.0
2017-07-17T00:19:00.478Z,1012.0
2017-07-17T00:20:01.851Z,1012.0
2017-07-17T00:21:03.225Z,1012.0
2017-07-17T00:22:04.600Z,1012.0
2017-07-17T00:23:05.974Z,1012.0
2017-07-17T00:24:07.341Z,1012.0
2017-07-17T00:25:08.714Z,1012.0
2017-07-17T00:26:10.089Z,1012.0
2017-07-17T00:27:11.462Z,1012.0
2017-07-17T00:28:12.835Z,1012.0
2017-07-17T00:29:14.203Z,1012.0
2017-07-17T00:30:15.574Z,1012.0
2017-07-17T00:31:16.947Z,1012.0
2017-07-17T00:32:18.318Z,1012.0
2017-07-17T00:33:19.692Z,1012.0
2017-07-17T00:34:21.063Z,1012.0
2017-07-17T00:35:22.471Z,1012.0
2017-07-17T00:36:23.812Z,1012.0
2017-07-17T00:37:25.184Z,1012.0
2017-07-17T00:38:26.556Z,1012.0
2017-07-17T00:39:27.927Z,1012.0
2017-07-17T00:40:29.299Z,1012.0
2017-07-17T00:41:30.673Z,1012.0
2017-07-17T00:42:32.047Z,1012.0
2017-07-17T00:43:33.417Z,1012.0
2017-07-17T00:44:34.795Z,1012.0
2017-07-17T00:45:36.168Z,1012.0
2017-07-17T00:46:37.537Z,1011.9
2017-07-17T00:47:38.909Z,1012.0
2017-07-17T00:48:40.292Z,1012.0
2017-07-17T00:49:41.660Z,1012.0
2017-07-17T00:50:43.034Z,1011.9
2017-07-17T00:51:44.405Z,1012.0
2017-07-17T00:52:45.778Z,1012.0
2017-07-17T00:53:47.150Z,1011.9
2017-07-17T00:54:48.655Z,1012.0
2017-07-17T00:55:50.030Z,1012.0
2017-07-17T00:56:51.406Z,1012.0
2017-07-17T00:57:52.774Z,1011.9
2017-07-17T00:58:54.146Z,1011.9
2017-07-17T00:59:55.517Z,1011.9
2017-07-17T01:00:56.891Z,1011.9
2017-07-17T01:01:58.261Z,1011.9
2017-07-17T01:02:59.633Z,1011.9
2017-07-17T01:04:01.056Z,1011.9
2017-07-17T01:05:02.489Z,1011.8
2017-07-17T01:06:03.859Z,1011.8
2017-07-17T01:07:05.233Z,1011.9
2017-07-17T01:08:06.604Z,1011.9
2017-07-17T01:09:07.973Z,1011.9
2017-07-17T01:10:09.344Z,1011.9
2017-07-17T01:11:10.719Z,1012.0
2017-07-17T01:12:12.086Z,1012.0
2017-07-17T01:13:13.460Z,1012.0
2017-07-17T01:14:14.833Z,1012.0
2017-07-17T01:15:16.203Z,1012.0
2017-07-17T01:16:17.577Z,1012.0
2017-07-17T01:17:18.950Z,1012.0
2017-07-17T01:18:20.324Z,1012.0
2017-07-17T01:19:21.692Z,1012.0
2017-07-17T01:20:23.063Z,1012.0
2017-07-17T01:21:24.436Z,1012.0
2017-07-17T01:22:25.806Z,1012.0
2017-07-17T01:23:27.176Z,1012.0
2017-07-17T01:24:28.551Z,1012.0
2017-07-17T01:25:29.924Z,1012.0
2017-07-17T01:26:31.294Z,1012.0
2017-07-17T01:27:32.665Z,1012.1
2017-07-17T01:28:34.035Z,1012.0
2017-07-17T01:29:35.408Z,1012.0
2017-07-17T01:30:36.781Z,1012.0
2017-07-17T01:31:38.156Z,1012.0
2017-07-17T01:32:39.529Z,1012.0
2017-07-17T01:33:40.901Z,1012.0
2017-07-17T01:34:42.274Z,1012.0
2017-07-17T01:35:43.644Z,1011.9
2017-07-17T01:36:45.017Z,1012.0
2017-07-17T01:37:46.388Z,1012.0
2017-07-17T01:38:47.763Z,1012.0
2017-07-17T01:39:49.146Z,1012.0
2017-07-17T01:40:50.517Z,1012.0
2017-07-17T01:41:52.598Z,1012.0
2017-07-17T01:42:53.970Z,1012.0
2017-07-17T01:43:55.341Z,1012.0
2017-07-17T01:44:56.713Z,1011.9
2017-07-17T01:45:58.089Z,1012.0
2017-07-17T01:46:59.459Z,1012.0
2017-07-17T01:48:00.828Z,1012.0
2017-07-17T01:49:02.197Z,1012.0
2017-07-17T01:50:03.574Z,1012.0
2017-07-17T01:51:04.944Z,1012.0
2017-07-17T01:52:06.316Z,1012.1
2017-07-17T01:53:07.686Z,1012.0
2017-07-17T01:54:09.059Z,1012.0
2017-07-17T01:55:10.431Z,1012.0
2017-07-17T01:56:11.805Z,1012.0
2017-07-17T01:57:13.180Z,1012.0
2017-07-17T01:58:14.554Z,1012.0
2017-07-17T01:59:15.927Z,1012.0
2017-07-17T02:00:17.301Z,1012.0
2017-07-17T02:01:18.671Z,1012.0
2017-07-17T02:02:20.040Z,1012.0
2017-07-17T02:03:21.414Z,1012.0
2017-07-17T02:04:22.786Z,1012.0
2017-07-17T02:05:24.159Z,1012.0
2017-07-17T02:06:25.530Z,1012.0
2017-07-17T02:07:26.900Z,1012.0
2017-07-17T02:08:28.272Z,1012.0
2017-07-17T02:09:29.646Z,1012.0
2017-07-17T02:10:31.013Z,1012.0
2017-07-17T02:11:32.387Z,1012.1
2017-07-17T02:12:33.757Z,1012.1
2017-07-17T02:13:35.129Z,1012.1
2017-07-17T02:14:36.501Z,1012.0
2017-07-17T02:15:37.873Z,1012.0
2017-07-17T02:16:39.254Z,1012.0
2017-07-17T02:17:40.624Z,1012.0
2017-07-17T02:18:41.995Z,1012.0
2017-07-17T02:19:43.365Z,1012.0
2017-07-17T02:20:44.739Z,1011.9
2017-07-17T02:21:46.112Z,1012.0
2017-07-17T02:22:47.485Z,1012.0
2017-07-17T02:23:48.855Z,1012.0
2017-07-17T02:24:50.225Z,1011.9
2017-07-17T02:25:51.600Z,1012.0
2017-07-17T02:26:52.972Z,1012.0
2017-07-17T02:27:54.342Z,1012.0
2017-07-17T02:28:55.717Z,1012.0
2017-07-17T02:29:57.093Z,1012.0
2017-07-17T02:30:58.465Z,1012.0
2017-07-17T02:31:59.836Z,1012.0
2017-07-17T02:33:01.256Z,1012.0
2017-07-17T02:34:02.627Z,1012.0
2017-07-17T02:35:03.998Z,1011.9
2017-07-17T02:36:05.373Z,1012.0
2017-07-17T02:37:06.743Z,1011.9
2017-07-17T02:38:08.116Z,1011.9
2017-07-17T02:39:09.488Z,1011.9
2017-07-17T02:40:10.860Z,1012.0
2017-07-17T02:41:12.229Z,1011.9
2017-07-17T02:42:13.600Z,1011.9
2017-07-17T02:43:14.970Z,1011.9
2017-07-17T02:44:16.343Z,1011.9
2017-07-17T02:45:17.719Z,1011.8
2017-07-17T02:46:19.091Z,1011.8
2017-07-17T02:47:20.462Z,1011.9
2017-07-17T02:48:21.837Z,1011.9
2017-07-17T02:49:23.208Z,1011.9
2017-07-17T02:50:24.587Z,1011.9
2017-07-17T02:51:25.964Z,1011.9
2017-07-17T02:52:27.336Z,1011.9
2017-07-17T02:53:28.706Z,1011.9
2017-07-17T02:54:30.077Z,1011.9
2017-07-17T02:55:31.448Z,1011.8
2017-07-17T02:56:32.820Z,1011.9
2017-07-17T02:57:34.192Z,1011.9
2017-07-17T02:58:35.572Z,1011.9
2017-07-17T02:59:36.934Z,1011.9
2017-07-17T03:00:38.305Z,1011.9
2017-07-17T03:01:39.674Z,1011.9
2017-07-17T03:02:41.044Z,1011.8
2017-07-17T03:03:42.418Z,1011.9
2017-07-17T03:04:43.793Z,1011.9
2017-07-17T03:05:45.169Z,1011.9
2017-07-17T03:06:46.541Z,1011.9
2017-07-17T03:07:47.917Z,1011.9
2017-07-17T03:08:49.287Z,1011.9
2017-07-17T03:09:50.658Z,1011.9
2017-07-17T03:10:52.031Z,1011.9
2017-07-17T03:11:53.403Z,1011.9
2017-07-17T03:12:54.778Z,1011.9
2017-07-17T03:13:56.147Z,1011.9
2017-07-17T03:14:57.520Z,1011.9
2017-07-17T03:15:58.896Z,1011.9
2017-07-17T03:17:00.277Z,1011.9
2017-07-17T03:18:01.650Z,1012.0
2017-07-17T03:19:03.026Z,1012.0
2017-07-17T03:20:04.400Z,1012.1
2017-07-17T03:21:05.773Z,1012.1
2017-07-17T03:22:07.146Z,1012.1
2017-07-17T03:23:08.515Z,1012.1
2017-07-17T03:24:09.888Z,1012.1
2017-07-17T03:25:11.263Z,1012.1
2017-07-17T03:26:12.637Z,1012.1
2017-07-17T03:27:14.063Z,1012.1
2017-07-17T03:28:15.470Z,1012.2
2017-07-17T03:29:16.844Z,1012.2
2017-07-17T03:30:18.213Z,1012.2
2017-07-17T03:31:19.588Z,1012.2
2017-07-17T03:32:20.962Z,1012.2
2017-07-17T03:33:22.337Z,1012.2
2017-07-17T03:34:23.704Z,1012.2
2017-07-17T03:35:25.076Z,1012.2
2017-07-17T03:36:26.443Z,1012.2
2017-07-17T03:37:27.817Z,1012.3
2017-07-17T03:38:29.191Z,1012.2
2017-07-17T03:39:30.568Z,1012.2
2017-07-17T03:40:31.942Z,1012.2
2017-07-17T03:41:33.314Z,1012.2
2017-07-17T03:42:34.683Z,1012.2
2017-07-17T03:43:36.056Z,1012.2
2017-07-17T03:44:37.430Z,1012.2
2017-07-17T03:45:38.810Z,1012.2
2017-07-17T03:46:40.224Z,1012.2
2017-07-17T03:47:41.558Z,1012.2
2017-07-17T03:48:42.939Z,1012.2
2017-07-17T03:49:44.315Z,1012.2
2017-07-17T03:50:45.692Z,1012.2
2017-07-17T03:51:47.061Z,1012.2
2017-07-17T03:52:48.433Z,1012.2
2017-07-17T03:53:49.806Z,1012.2
2017-07-17T03:54:51.181Z,1012.2
2017-07-17T03:55:52.551Z,1012.3
2017-07-17T03:56:53.921Z,1012.2
2017-07-17T03:57:55.294Z,1012.2
2017-07-17T03:58:56.666Z,1012.1
2017-07-17T03:59:58.038Z,1012.1
2017-07-17T04:00:59.411Z,1012.1
2017-07-17T04:02:00.786Z,1012.1
2017-07-17T04:03:02.156Z,1012.2
2017-07-17T04:04:03.525Z,1012.1
2017-07-17T04:05:04.915Z,1012.1
2017-07-17T04:06:06.289Z,1012.2
2017-07-17T04:07:07.661Z,1012.3
2017-07-17T04:08:09.033Z,1012.2
2017-07-17T04:09:10.406Z,1012.2
2017-07-17T04:10:11.776Z,1012.2
2017-07-17T04:11:13.149Z,1012.2
2017-07-17T04:12:14.520Z,1012.2
2017-07-17T04:13:15.888Z,1012.2
2017-07-17T04:14:17.260Z,1012.2
2017-07-17T04:15:18.632Z,1012.2
2017-07-17T04:16:20.004Z,1012.2
2017-07-17T04:17:21.377Z,1012.2
2017-07-17T04:18:22.747Z,1012.2
2017-07-17T04:19:24.121Z,1012.2
2017-07-17T04:20:25.493Z,1012.2
2017-07-17T04:21:26.868Z,1012.2
2017-07-17T04:22:28.242Z,1012.3
2017-07-17T04:23:29.617Z,1012.3
2017-07-17T04:24:30.990Z,1012.3
2017-07-17T04:25:32.362Z,1012.3
2017-07-17T04:26:33.736Z,1012.3
2017-07-17T04:27:35.108Z,1012.3
2017-07-17T04:28:36.479Z,1012.3
2017-07-17T04:29:37.851Z,1012.3
2017-07-17T04:30:39.223Z,1012.3
2017-07-17T04:31:40.597Z,1012.3
2017-07-17T04:32:41.975Z,1012.4
2017-07-17T04:33:43.341Z,1012.3
2017-07-17T04:34:44.715Z,1012.3
2017-07-17T04:35:46.086Z,1012.4
2017-07-17T04:36:47.458Z,1012.4
2017-07-17T04:37:48.834Z,1012.4
2017-07-17T04:38:50.207Z,1012.4
2017-07-17T04:39:51.578Z,1012.5
2017-07-17T04:40:52.945Z,1012.4
2017-07-17T04:41:54.316Z,1012.4
2017-07-17T04:42:55.690Z,1012.4
2017-07-17T04:43:57.063Z,1012.4
2017-07-17T04:44:58.441Z,1012.4
2017-07-17T04:45:59.810Z,1012.4
2017-07-17T04:47:01.184Z,1012.4
2017-07-17T04:48:02.554Z,1012.4
2017-07-17T04:49:03.926Z,1012.5
2017-07-17T04:50:05.302Z,1012.5
2017-07-17T04:51:06.671Z,1012.4
2017-07-17T04:52:08.046Z,1012.5
2017-07-17T04:53:09.416Z,1012.5
2017-07-17T04:54:10.788Z,1012.5
2017-07-17T04:55:12.159Z,1012.5
2017-07-17T04:56:13.530Z,1012.5
2017-07-17T04:57:14.899Z,1012.5
2017-07-17T04:58:16.275Z,1012.5
2017-07-17T04:59:17.648Z,1012.5
2017-07-17T05:00:19.020Z,1012.5
2017-07-17T05:01:20.392Z,1012.4
2017-07-17T05:02:21.763Z,1012.5
2017-07-17T05:03:23.137Z,1012.5
2017-07-17T05:04:24.508Z,1012.5
2017-07-17T05:05:25.884Z,1012.5
2017-07-17T05:06:27.259Z,1012.5
2017-07-17T05:07:28.630Z,1012.5
2017-07-17T05:08:30.003Z,1012.5
2017-07-17T05:09:31.371Z,1012.6
2017-07-17T05:10:32.745Z,1012.6
2017-07-17T05:11:34.116Z,1012.5
2017-07-17T05:12:35.487Z,1012.5
2017-07-17T05:13:36.862Z,1012.6
2017-07-17T05:14:38.240Z,1012.5
2017-07-17T05:15:39.611Z,1012.6
2017-07-17T05:16:40.981Z,1012.6
2017-07-17T05:17:42.355Z,1012.6
2017-07-17T05:18:43.727Z,1012.6
2017-07-17T05:19:45.101Z,1012.6
2017-07-17T05:20:46.477Z,1012.6
2017-07-17T05:21:47.846Z,1012.6
2017-07-17T05:22:49.215Z,1012.6
2017-07-17T05:23:50.587Z,1012.6
2017-07-17T05:24:51.961Z,1012.6
2017-07-17T05:25:53.333Z,1012.6
2017-07-17T05:26:54.709Z,1012.5
2017-07-17T05:27:56.075Z,1012.5
2017-07-17T05:28:57.451Z,1012.5
2017-07-17T05:29:58.827Z,1012.6
2017-07-17T05:31:00.194Z,1012.6
2017-07-17T05:32:01.573Z,1012.6
2017-07-17T05:33:02.952Z,1012.6
2017-07-17T05:34:04.318Z,1012.6
2017-07-17T05:35:05.691Z,1012.7
2017-07-17T05:36:07.065Z,1012.7
2017-07-17T05:37:09.276Z,1012.8
2017-07-17T05:38:10.650Z,1012.7
2017-07-17T05:39:51.489Z,1012.7
2017-07-17T05:40:52.862Z,1012.7
2017-07-17T05:42:14.332Z,1012.8
2017-07-17T05:43:15.704Z,1012.8
2017-07-17T05:44:37.172Z,1012.8
2017-07-17T05:45:38.543Z,1012.7
2017-07-17T05:47:00.062Z,1012.8
2017-07-17T05:48:01.434Z,1012.8
2017-07-17T05:49:22.903Z,1012.8
2017-07-17T05:50:24.270Z,1012.9
2017-07-17T05:51:45.743Z,1012.9
2017-07-17T05:52:47.114Z,1012.9
2017-07-17T05:54:08.601Z,1013.0
2017-07-17T05:55:10.017Z,1013.0
2017-07-17T05:56:31.508Z,1013.0
2017-07-17T05:57:32.876Z,1013.0
2017-07-17T05:58:54.345Z,1013.0
2017-07-17T05:59:55.713Z,1013.1
2017-07-17T06:01:17.193Z,1013.1
2017-07-17T06:02:18.562Z,1013.1
2017-07-17T06:03:40.028Z,1013.1
2017-07-17T06:04:41.403Z,1013.1
2017-07-17T06:06:02.864Z,1013.1
2017-07-17T06:07:04.235Z,1013.0
2017-07-17T06:08:25.711Z,1013.1
2017-07-17T06:09:27.081Z,1013.1
2017-07-17T06:10:48.557Z,1013.1
2017-07-17T06:11:49.921Z,1013.2
2017-07-17T06:13:11.396Z,1013.1
2017-07-17T06:14:12.768Z,1013.1
2017-07-17T06:15:34.249Z,1013.1
2017-07-17T06:16:35.624Z,1013.1
2017-07-17T06:17:57.092Z,1013.1
2017-07-17T06:18:58.492Z,1013.1
2017-07-17T06:20:19.938Z,1013.1
2017-07-17T06:21:21.306Z,1013.1
2017-07-17T06:22:42.781Z,1013.1
2017-07-17T06:23:44.153Z,1013.1
2017-07-17T06:25:05.623Z,1013.0
2017-07-17T06:26:07.000Z,1013.1
2017-07-17T06:27:28.466Z,1013.0
2017-07-17T06:28:29.833Z,1013.1
2017-07-17T06:29:51.316Z,1013.1
2017-07-17T06:30:52.689Z,1013.1
2017-07-17T06:32:14.155Z,1013.1
2017-07-17T06:33:15.565Z,1013.2
2017-07-17T06:34:36.983Z,1013.2
2017-07-17T06:35:38.352Z,1013.2
2017-07-17T06:36:59.831Z,1013.2
2017-07-17T06:38:01.202Z,1013.2
2017-07-17T06:39:02.572Z,1013.2
2017-07-17T06:40:03.941Z,1013.2
2017-07-17T06:41:05.312Z,1013.3
2017-07-17T06:42:06.684Z,1013.2
2017-07-17T06:43:08.056Z,1013.3
2017-07-17T06:44:09.428Z,1013.3
2017-07-17T06:45:10.794Z,1013.2
2017-07-17T06:46:12.170Z,1013.3
2017-07-17T06:47:13.544Z,1013.3
2017-07-17T06:48:14.916Z,1013.3
2017-07-17T06:49:16.291Z,1013.3
2017-07-17T06:50:17.663Z,1013.3
2017-07-17T06:51:19.035Z,1013.4
2017-07-17T06:52:20.406Z,1013.3
2017-07-17T06:53:21.781Z,1013.4
2017-07-17T06:54:23.152Z,1013.3
2017-07-17T06:55:24.524Z,1013.3
2017-07-17T06:56:25.895Z,1013.3
2017-07-17T06:57:27.268Z,1013.3
2017-07-17T06:58:28.639Z,1013.3
2017-07-17T06:59:30.014Z,1013.4
2017-07-17T07:00:31.380Z,1013.3
2017-07-17T07:01:32.751Z,1013.4
2017-07-17T07:02:34.121Z,1013.4
2017-07-17T07:03:35.496Z,1013.4
2017-07-17T07:04:36.870Z,1013.4
2017-07-17T07:05:38.241Z,1013.4
2017-07-17T07:06:39.612Z,1013.4
2017-07-17T07:07:40.982Z,1013.4
2017-07-17T07:08:42.353Z,1013.4
2017-07-17T07:09:43.727Z,1013.4
2017-07-17T07:10:45.104Z,1013.4
2017-07-17T07:11:46.478Z,1013.4
2017-07-17T07:12:47.854Z,1013.4
2017-07-17T07:13:49.230Z,1013.4
2017-07-17T07:14:50.599Z,1013.4
2017-07-17T07:15:51.973Z,1013.4
2017-07-17T07:16:53.354Z,1013.4
2017-07-17T07:17:54.721Z,1013.5
2017-07-17T07:18:56.094Z,1013.5
2017-07-17T07:19:57.469Z,1013.5
2017-07-17T07:20:58.840Z,1013.5
2017-07-17T07:22:00.208Z,1013.5
2017-07-17T07:23:01.581Z,1013.5
2017-07-17T07:24:02.951Z,1013.4
2017-07-17T07:25:04.325Z,1013.5
2017-07-17T07:26:05.705Z,1013.4
2017-07-17T07:27:07.077Z,1013.6
2017-07-17T07:28:08.446Z,1013.5
2017-07-17T07:29:09.822Z,1013.5
2017-07-17T07:30:11.195Z,1013.5
2017-07-17T07:31:12.575Z,1013.6
2017-07-17T07:32:13.939Z,1013.6
2017-07-17T07:33:15.312Z,1013.6
2017-07-17T07:34:16.684Z,1013.6
2017-07-17T07:35:18.057Z,1013.5
2017-07-17T07:36:19.428Z,1013.6
2017-07-17T07:37:20.798Z,1013.5
2017-07-17T07:38:22.965Z,1013.6
2017-07-17T07:39:23.498Z,1013.6
2017-07-17T07:40:24.873Z,1013.5
2017-07-17T07:41:26.249Z,1013.5
2017-07-17T07:42:27.615Z,1013.5
2017-07-17T07:43:28.984Z,1013.6
2017-07-17T07:44:30.357Z,1013.6
2017-07-17T07:45:31.731Z,1013.5
2017-07-17T07:46:33.100Z,1013.5
2017-07-17T07:47:34.478Z,1013.4
2017-07-17T07:48:35.851Z,1013.4
2017-07-17T07:49:37.224Z,1013.5
2017-07-17T07:50:38.590Z,1013.5
2017-07-17T07:51:39.966Z,1013.5
2017-07-17T07:52:41.334Z,1013.6
2017-07-17T07:53:42.706Z,1013.6
2017-07-17T07:54:44.079Z,1013.5
2017-07-17T07:55:45.451Z,1013.6
2017-07-17T07:56:46.818Z,1013.5
2017-07-17T07:57:48.189Z,1013.6
2017-07-17T07:58:49.565Z,1013.5
2017-07-17T07:59:50.935Z,1013.6
2017-07-17T08:00:52.308Z,1013.6
2017-07-17T08:01:53.680Z,1013.6
2017-07-17T08:02:55.050Z,1013.5
2017-07-17T08:03:56.420Z,1013.6
2017-07-17T08:04:57.794Z,1013.6
2017-07-17T08:05:59.206Z,1013.6
2017-07-17T08:07:00.591Z,1013.6
2017-07-17T08:08:01.970Z,1013.6
2017-07-17T08:09:03.344Z,1013.6
2017-07-17T08:10:04.716Z,1013.6
2017-07-17T08:11:06.088Z,1013.6
2017-07-17T08:12:07.458Z,1013.6
2017-07-17T08:13:08.829Z,1013.6
2017-07-17T08:14:10.202Z,1013.6
2017-07-17T08:15:11.573Z,1013.6
2017-07-17T08:16:12.996Z,1013.6
2017-07-17T08:17:14.363Z,1013.6
2017-07-17T08:18:15.737Z,1013.6
2017-07-17T08:19:17.110Z,1013.6
2017-07-17T08:20:18.480Z,1013.6
2017-07-17T08:21:19.853Z,1013.7
2017-07-17T08:22:21.229Z,1013.7
2017-07-17T08:23:22.601Z,1013.6
2017-07-17T08:24:23.972Z,1013.6
2017-07-17T08:25:25.344Z,1013.6
2017-07-17T08:26:26.715Z,1013.6
2017-07-17T08:27:28.088Z,1013.6
2017-07-17T08:28:29.460Z,1013.6
2017-07-17T08:29:30.830Z,1013.6
2017-07-17T08:30:32.207Z,1013.6
2017-07-17T08:31:33.607Z,1013.6
2017-07-17T08:32:34.977Z,1013.6
2017-07-17T08:33:36.348Z,1013.6
2017-07-17T08:34:37.723Z,1013.6
2017-07-17T08:35:39.101Z,1013.6
2017-07-17T08:36:40.484Z,1013.6
2017-07-17T08:37:41.848Z,1013.6
2017-07-17T08:38:43.225Z,1013.7
2017-07-17T08:39:44.594Z,1013.6
2017-07-17T08:40:45.963Z,1013.6
2017-07-17T08:41:47.342Z,1013.6
2017-07-17T08:42:48.710Z,1013.6
2017-07-17T08:43:50.081Z,1013.6
2017-07-17T08:44:51.451Z,1013.6
2017-07-17T08:45:52.826Z,1013.6
2017-07-17T08:46:54.198Z,1013.6
2017-07-17T08:47:55.573Z,1013.6
2017-07-17T08:48:56.949Z,1013.6
2017-07-17T08:49:58.319Z,1013.6
2017-07-17T08:50:59.689Z,1013.5
2017-07-17T08:52:01.061Z,1013.5
2017-07-17T08:53:02.437Z,1013.5
2017-07-17T08:54:03.812Z,1013.5
2017-07-17T08:55:05.181Z,1013.5
2017-07-17T08:56:06.552Z,1013.6
2017-07-17T08:57:07.920Z,1013.5
2017-07-17T08:58:09.294Z,1013.5
2017-07-17T08:59:10.666Z,1013.5
2017-07-17T09:00:12.039Z,1013.6
2017-07-17T09:01:13.411Z,1013.6
2017-07-17T09:02:14.779Z,1013.5
2017-07-17T09:03:16.159Z,1013.6
2017-07-17T09:04:17.531Z,1013.6
2017-07-17T09:05:18.902Z,1013.5
2017-07-17T09:06:20.273Z,1013.5
2017-07-17T09:07:21.645Z,1013.5
2017-07-17T09:08:23.015Z,1013.5
2017-07-17T09:09:24.387Z,1013.4
2017-07-17T09:10:25.763Z,1013.5
2017-07-17T09:11:27.134Z,1013.5
2017-07-17T09:12:28.502Z,1013.5
2017-07-17T09:13:29.874Z,1013.4
2017-07-17T09:14:31.248Z,1013.5
2017-07-17T09:15:32.620Z,1013.5
2017-07-17T09:16:33.987Z,1013.4
2017-07-17T09:17:35.360Z,1013.5
2017-07-17T09:18:36.733Z,1013.5
2017-07-17T09:19:38.104Z,1013.5
2017-07-17T09:20:39.476Z,1013.4
2017-07-17T09:21:40.849Z,1013.4
2017-07-17T09:22:42.219Z,1013.4
2017-07-17T09:23:43.587Z,1013.4
2017-07-17T09:24:44.959Z,1013.5
2017-07-17T09:25:46.328Z,1013.5
2017-07-17T09:26:47.704Z,1013.4
2017-07-17T09:27:49.077Z,1013.5
2017-07-17T09:28:50.447Z,1013.4
2017-07-17T09:29:51.819Z,1013.4
2017-07-17T09:30:53.192Z,1013.4
2017-07-17T09:31:54.562Z,1013.4
2017-07-17T09:32:55.935Z,1013.3
2017-07-17T09:33:57.305Z,1013.4
2017-07-17T09:34:58.682Z,1013.4
2017-07-17T09:36:00.057Z,1013.3
2017-07-17T09:37:01.429Z,1013.4
2017-07-17T09:38:02.796Z,1013.4
2017-07-17T09:39:04.167Z,1013.4
2017-07-17T09:40:05.537Z,1013.3
2017-07-17T09:41:06.909Z,1013.4
2017-07-17T09:42:08.281Z,1013.4
2017-07-17T09:43:09.657Z,1013.4
2017-07-17T09:44:11.026Z,1013.4
2017-07-17T09:45:12.397Z,1013.4
2017-07-17T09:46:13.769Z,1013.4
2017-07-17T09:47:15.142Z,1013.4
2017-07-17T09:48:16.513Z,1013.4
2017-07-17T09:49:17.894Z,1013.4
2017-07-17T09:50:19.263Z,1013.4
2017-07-17T09:51:20.633Z,1013.4
2017-07-17T09:52:22.003Z,1013.4
2017-07-17T09:53:23.372Z,1013.4
2017-07-17T09:54:24.745Z,1013.3
2017-07-17T09:55:26.119Z,1013.4
2017-07-17T09:56:27.492Z,1013.4
2017-07-17T09:57:28.866Z,1013.3
2017-07-17T09:58:30.236Z,1013.4
2017-07-17T09:59:31.607Z,1013.3
2017-07-17T10:00:32.980Z,1013.3
2017-07-17T10:01:34.351Z,1013.3
2017-07-17T10:02:35.725Z,1013.4
2017-07-17T10:03:37.103Z,1013.4
2017-07-17T10:04:38.475Z,1013.4
2017-07-17T10:05:39.845Z,1013.4
2017-07-17T10:06:41.218Z,1013.4
2017-07-17T10:07:42.586Z,1013.4
2017-07-17T10:08:43.956Z,1013.4
2017-07-17T10:09:45.327Z,1013.4
2017-07-17T10:10:46.703Z,1013.4
2017-07-17T10:11:48.078Z,1013.4
2017-07-17T10:12:49.443Z,1013.3
2017-07-17T10:13:50.814Z,1013.3
2017-07-17T10:14:52.190Z,1013.3
2017-07-17T10:15:53.564Z,1013.3
2017-07-17T10:16:54.936Z,1013.3
2017-07-17T10:17:56.310Z,1013.3
2017-07-17T10:18:57.682Z,1013.4
2017-07-17T10:19:59.054Z,1013.3
2017-07-17T10:21:00.424Z,1013.3
2017-07-17T10:22:01.800Z,1013.4
2017-07-17T10:23:03.164Z,1013.3
2017-07-17T10:24:04.540Z,1013.3
2017-07-17T10:25:05.906Z,1013.3
2017-07-17T10:26:07.287Z,1013.3
2017-07-17T10:27:08.656Z,1013.3
2017-07-17T10:28:10.028Z,1013.3
2017-07-17T10:29:11.399Z,1013.2
2017-07-17T10:30:12.768Z,1013.3
2017-07-17T10:31:14.140Z,1013.2
2017-07-17T10:32:15.515Z,1013.3
2017-07-17T10:33:16.884Z,1013.3
2017-07-17T10:34:18.303Z,1013.3
2017-07-17T10:35:19.675Z,1013.3
2017-07-17T10:36:21.047Z,1013.3
2017-07-17T10:37:22.416Z,1013.3
2017-07-17T10:38:23.789Z,1013.3
2017-07-17T10:39:25.162Z,1013.3
2017-07-17T10:40:26.534Z,1013.3
2017-07-17T10:41:27.912Z,1013.3
2017-07-17T10:42:29.288Z,1013.3
2017-07-17T10:43:30.654Z,1013.3
2017-07-17T10:44:32.023Z,1013.3
2017-07-17T10:45:33.400Z,1013.3
2017-07-17T10:46:34.771Z,1013.3
2017-07-17T10:47:36.142Z,1013.3
2017-07-17T10:48:37.511Z,1013.3
2017-07-17T10:49:38.883Z,1013.3
2017-07-17T10:50:40.262Z,1013.3
2017-07-17T10:51:41.629Z,1013.2
2017-07-17T10:52:43.001Z,1013.3
2017-07-17T10:53:44.374Z,1013.3
2017-07-17T10:54:45.750Z,1013.3
2017-07-17T10:55:47.121Z,1013.3
2017-07-17T10:56:48.477Z,1013.3
2017-07-17T10:57:49.864Z,1013.3
2017-07-17T10:58:51.236Z,1013.3
2017-07-17T10:59:52.606Z,1013.3
2017-07-17T11:00:53.983Z,1013.3
2017-07-17T11:01:55.356Z,1013.3
2017-07-17T11:02:56.726Z,1013.3
2017-07-17T11:03:58.097Z,1013.3
2017-07-17T11:04:59.470Z,1013.3
2017-07-17T11:06:00.843Z,1013.3
2017-07-17T11:07:02.214Z,1013.3
2017-07-17T11:08:03.587Z,1013.3
2017-07-17T11:09:04.963Z,1013.3
2017-07-17T11:10:06.331Z,1013.4
2017-07-17T11:11:07.705Z,1013.3
2017-07-17T11:12:09.076Z,1013.3
2017-07-17T11:13:10.447Z,1013.3
2017-07-17T11:14:11.822Z,1013.3
2017-07-17T11:15:13.193Z,1013.3
2017-07-17T11:16:14.564Z,1013.3
2017-07-17T11:17:15.934Z,1013.3
2017-07-17T11:18:17.305Z,1013.3
2017-07-17T11:19:18.688Z,1013.3
2017-07-17T11:20:20.051Z,1013.4
2017-07-17T11:21:21.430Z,1013.3
2017-07-17T11:22:22.801Z,1013.3
2017-07-17T11:23:24.174Z,1013.4
2017-07-17T11:24:25.547Z,1013.4
2017-07-17T11:25:26.921Z,1013.3
2017-07-17T11:26:28.293Z,1013.3
2017-07-17T11:27:29.663Z,1013.3
2017-07-17T11:28:31.037Z,1013.3
2017-07-17T11:29:32.410Z,1013.4
2017-07-17T11:30:33.781Z,1013.4
2017-07-17T11:31:35.162Z,1013.3
2017-07-17T11:32:36.537Z,1013.3
2017-07-17T11:33:37.917Z,1013.4
2017-07-17T11:34:39.282Z,1013.4
2017-07-17T11:35:40.668Z,1013.3
2017-07-17T11:36:42.040Z,1013.4
2017-07-17T11:37:43.414Z,1013.3
2017-07-17T11:38:44.782Z,1013.4
2017-07-17T11:39:46.159Z,1013.4
2017-07-17T11:40:47.529Z,1013.3
2017-07-17T11:41:48.901Z,1013.4
2017-07-17T11:42:50.272Z,1013.3
2017-07-17T11:43:51.642Z,1013.3
2017-07-17T11:44:53.016Z,1013.3
2017-07-17T11:45:54.387Z,1013.4
2017-07-17T11:56:08.223Z,1013.3
2017-07-17T11:57:09.590Z,1013.3
2017-07-17T11:58:31.073Z,1013.3
2017-07-17T11:59:32.444Z,1013.2
2017-07-17T12:00:53.908Z,1013.3
2017-07-17T12:01:55.277Z,1013.3
2017-07-17T12:03:16.746Z,1013.2
2017-07-17T12:04:18.122Z,1013.3
2017-07-17T12:06:19.066Z,1013.2
2017-07-17T12:07:20.436Z,1013.3
2017-07-17T12:08:41.914Z,1013.3
2017-07-17T12:09:43.283Z,1013.3
2017-07-17T12:11:04.760Z,1013.3
2017-07-17T12:12:06.131Z,1013.2
2017-07-17T12:13:27.598Z,1013.2
2017-07-17T12:14:28.965Z,1013.3
2017-07-17T12:15:50.430Z,1013.2
2017-07-17T12:16:51.800Z,1013.3
2017-07-17T12:18:13.279Z,1013.2
2017-07-17T12:19:14.650Z,1013.3
2017-07-17T12:20:36.117Z,1013.3
2017-07-17T12:21:37.485Z,1013.2
2017-07-17T12:22:58.969Z,1013.2
2017-07-17T12:24:00.340Z,1013.2
2017-07-17T12:25:21.839Z,1013.2
2017-07-17T12:26:23.207Z,1013.2
2017-07-17T12:27:44.697Z,1013.2
2017-07-17T12:28:46.098Z,1013.2
2017-07-17T12:30:07.557Z,1013.2
2017-07-17T12:31:08.925Z,1013.1
2017-07-17T12:32:30.410Z,1013.2
2017-07-17T12:33:31.780Z,1013.1
2017-07-17T12:34:53.251Z,1013.1
2017-07-17T12:35:54.625Z,1013.1
2017-07-17T12:37:16.093Z,1013.1
2017-07-17T12:38:17.462Z,1013.1
2017-07-17T12:39:38.938Z,1013.1
2017-07-17T12:40:40.305Z,1013.1
2017-07-17T12:42:01.776Z,1013.1
2017-07-17T12:43:03.147Z,1013.1
2017-07-17T12:44:24.625Z,1013.1
2017-07-17T12:45:25.990Z,1013.1
2017-07-17T12:46:47.468Z,1013.1
2017-07-17T12:47:48.841Z,1013.0
2017-07-17T12:49:10.309Z,1013.0
2017-07-17T12:50:11.679Z,1013.1
2017-07-17T12:51:33.144Z,1013.0
2017-07-17T12:52:34.512Z,1013.0
2017-07-17T12:53:55.999Z,1013.0
2017-07-17T12:54:57.370Z,1013.1
2017-07-17T12:56:18.835Z,1013.0
2017-07-17T12:57:20.204Z,1013.1
2017-07-17T12:58:41.671Z,1013.0
2017-07-17T12:59:43.043Z,1013.0
2017-07-17T13:01:04.527Z,1013.0
2017-07-17T13:02:05.903Z,1013.0
2017-07-17T13:03:27.362Z,1013.0
2017-07-17T13:04:28.731Z,1013.0
2017-07-17T13:05:50.198Z,1013.0
2017-07-17T13:06:51.566Z,1013.0
2017-07-17T13:08:13.046Z,1013.0
2017-07-17T13:09:14.419Z,1013.0
2017-07-17T13:10:35.882Z,1013.0
2017-07-17T13:11:37.250Z,1013.0
2017-07-17T13:12:58.720Z,1013.0
2017-07-17T13:14:00.092Z,1013.0
2017-07-17T13:15:21.577Z,1013.0